createdAt,value
2023-05-09T00:00:50.045Z,64.7963
2023-05-09T00:01:51.157Z,64.7958
2023-05-09T00:02:52.265Z,64.8508
2023-05-09T00:03:53.400Z,64.7889
2023-05-09T00:04:54.459Z,64.7410
2023-05-09T00:05:55.610Z,64.7012
2023-05-09T00:06:56.620Z,64.7088
2023-05-09T00:07:57.712Z,64.7218
2023-05-09T00:08:58.816Z,64.6648
2023-05-09T00:09:59.897Z,64.5539
2023-05-09T00:11:00.999Z,64.4768
2023-05-09T00:12:02.096Z,64.5284
2023-05-09T00:13:03.208Z,64.5123
2023-05-09T00:14:04.276Z,64.4741
2023-05-09T00:15:05.422Z,64.4788
2023-05-09T00:16:06.474Z,64.5505
2023-05-09T00:17:07.537Z,64.6196
2023-05-09T00:18:08.626Z,64.7398
2023-05-09T00:19:09.736Z,64.7384
2023-05-09T00:20:10.842Z,64.8027
2023-05-09T00:21:11.998Z,64.7615
2023-05-09T00:22:12.998Z,64.7503
2023-05-09T00:23:14.101Z,64.7217
2023-05-09T00:24:15.196Z,64.5634
2023-05-09T00:25:16.508Z,64.4547
2023-05-09T00:26:17.389Z,64.4417
2023-05-09T00:27:18.494Z,64.4947
2023-05-09T00:28:19.573Z,64.5912
2023-05-09T00:29:20.671Z,64.6536
2023-05-09T00:30:21.750Z,64.6027
2023-05-09T00:31:22.862Z,64.5602
2023-05-09T00:32:23.951Z,64.4777
2023-05-09T00:33:25.065Z,64.3290
2023-05-09T00:34:26.146Z,64.1419
2023-05-09T00:35:27.243Z,64.0195
2023-05-09T00:36:28.420Z,63.9407
2023-05-09T00:37:29.434Z,63.8936
2023-05-09T00:38:30.544Z,63.8533
2023-05-09T00:39:31.622Z,63.8522
2023-05-09T00:40:32.732Z,63.8473
2023-05-09T00:41:33.807Z,63.8436
2023-05-09T00:42:34.901Z,63.7392
2023-05-09T00:43:35.982Z,63.7582
2023-05-09T00:44:37.086Z,63.8297
2023-05-09T00:45:38.198Z,63.7960
2023-05-09T00:46:39.273Z,63.7223
2023-05-09T00:47:40.383Z,63.6929
2023-05-09T00:48:41.458Z,63.6367
2023-05-09T00:49:42.563Z,63.5598
2023-05-09T00:50:43.671Z,63.5788
2023-05-09T00:51:44.827Z,63.6713
2023-05-09T00:52:45.819Z,63.7696
2023-05-09T00:53:46.908Z,63.7788
2023-05-09T00:54:48.038Z,63.7328
2023-05-09T00:55:49.109Z,63.6948
2023-05-09T00:56:50.212Z,63.6058
2023-05-09T00:57:51.309Z,63.5822
2023-05-09T00:58:52.398Z,63.5198
2023-05-09T00:59:53.506Z,63.5423
2023-05-09T01:00:54.603Z,63.6088
2023-05-09T01:01:55.689Z,63.4847
2023-05-09T01:02:56.935Z,63.5670
2023-05-09T01:03:57.886Z,63.7680
2023-05-09T01:04:58.992Z,63.6624
2023-05-09T01:06:00.105Z,63.5841
2023-05-09T01:07:01.281Z,63.5997
2023-05-09T01:08:02.280Z,63.6429
2023-05-09T01:09:03.373Z,63.6674
2023-05-09T01:10:04.453Z,63.6361
2023-05-09T01:11:05.617Z,63.6297
2023-05-09T01:12:06.654Z,63.6314
2023-05-09T01:13:07.759Z,63.6561
2023-05-09T01:14:08.856Z,63.6028
2023-05-09T01:15:09.948Z,63.4977
2023-05-09T01:16:11.078Z,63.5100
2023-05-09T01:17:12.108Z,63.4964
2023-05-09T01:18:13.245Z,63.5145
2023-05-09T01:19:14.309Z,63.4703
2023-05-09T01:20:15.405Z,63.4192
2023-05-09T01:21:16.509Z,63.3991
2023-05-09T01:22:17.709Z,63.3899
2023-05-09T01:23:18.693Z,63.4296
2023-05-09T01:24:19.772Z,63.4571
2023-05-09T01:25:20.886Z,63.3506
2023-05-09T01:26:21.964Z,63.2340
2023-05-09T01:27:23.055Z,63.2484
2023-05-09T01:28:24.148Z,63.2451
2023-05-09T01:29:25.254Z,63.3170
2023-05-09T01:30:26.350Z,63.4253
2023-05-09T01:31:27.450Z,63.4556
2023-05-09T01:32:28.614Z,63.4343
2023-05-09T01:33:29.636Z,63.4441
2023-05-09T01:34:30.739Z,63.3683
2023-05-09T01:35:31.834Z,63.4043
2023-05-09T01:36:33.017Z,63.3951
2023-05-09T01:37:34.089Z,63.3631
2023-05-09T01:38:35.109Z,63.3914
2023-05-09T01:39:36.190Z,63.5078
2023-05-09T01:40:37.286Z,63.4526
2023-05-09T01:41:38.416Z,63.4019
2023-05-09T01:42:39.473Z,63.2968
2023-05-09T01:43:40.653Z,63.3224
2023-05-09T01:44:41.663Z,63.4754
2023-05-09T01:45:42.773Z,63.6178
2023-05-09T01:46:43.888Z,63.6469
2023-05-09T01:47:44.991Z,63.6198
2023-05-09T01:48:46.031Z,63.6895
2023-05-09T01:49:47.120Z,63.7833
2023-05-09T01:50:48.208Z,63.8503
2023-05-09T01:51:49.318Z,63.7723
2023-05-09T01:52:50.495Z,63.7746
2023-05-09T01:53:51.493Z,63.6835
2023-05-09T01:54:52.592Z,63.6408
2023-05-09T01:55:53.665Z,63.5787
2023-05-09T01:56:54.796Z,63.4942
2023-05-09T01:57:55.858Z,63.4093
2023-05-09T01:58:56.960Z,63.3173
2023-05-09T01:59:58.041Z,63.3238
2023-05-09T02:00:59.180Z,63.2341
2023-05-09T02:02:00.361Z,63.2670
2023-05-09T02:03:01.427Z,63.2690
2023-05-09T02:04:02.427Z,63.3592
2023-05-09T02:05:03.568Z,63.4257
2023-05-09T02:06:04.611Z,63.5030
2023-05-09T02:07:05.742Z,63.3890
2023-05-09T02:08:06.907Z,63.3381
2023-05-09T02:09:07.884Z,63.2756
2023-05-09T02:10:08.977Z,63.2236
2023-05-09T02:11:17.612Z,63.2455
2023-05-09T02:12:11.179Z,63.2404
2023-05-09T02:13:12.278Z,63.2395
2023-05-09T02:14:13.355Z,63.1817
2023-05-09T02:15:14.648Z,63.2699
2023-05-09T02:16:15.593Z,63.3944
2023-05-09T02:17:16.624Z,63.4133
2023-05-09T02:18:17.719Z,63.3578
2023-05-09T02:19:18.806Z,63.2646
2023-05-09T02:20:19.891Z,63.1691
2023-05-09T02:21:20.985Z,63.1371
2023-05-09T02:22:22.105Z,63.0963
2023-05-09T02:23:23.267Z,63.0442
2023-05-09T02:24:24.340Z,63.1168
2023-05-09T02:25:25.417Z,63.2472
2023-05-09T02:26:26.515Z,63.2587
2023-05-09T02:27:27.625Z,63.2545
2023-05-09T02:28:28.686Z,63.2288
2023-05-09T02:29:29.788Z,63.2083
2023-05-09T02:30:30.874Z,62.9524
2023-05-09T02:31:32.009Z,62.9064
2023-05-09T02:32:33.097Z,63.0267
2023-05-09T02:33:34.131Z,63.0273
2023-05-09T02:34:35.223Z,63.0059
2023-05-09T02:35:36.307Z,62.9263
2023-05-09T02:36:37.437Z,62.9347
2023-05-09T02:37:38.499Z,63.0063
2023-05-09T02:38:39.641Z,63.1181
2023-05-09T02:39:40.650Z,63.1512
2023-05-09T02:40:41.744Z,63.2467
2023-05-09T02:41:42.814Z,63.2140
2023-05-09T02:42:43.911Z,63.0546
2023-05-09T02:43:44.991Z,62.9287
2023-05-09T02:44:46.089Z,62.9174
2023-05-09T02:45:47.249Z,62.8987
2023-05-09T02:46:48.265Z,62.9065
2023-05-09T02:47:49.416Z,62.9587
2023-05-09T02:48:50.460Z,63.0357
2023-05-09T02:49:51.556Z,63.2017
2023-05-09T02:50:52.689Z,63.2177
2023-05-09T02:51:53.741Z,63.3987
2023-05-09T02:52:54.819Z,63.4374
2023-05-09T02:53:55.984Z,63.4700
2023-05-09T02:54:57.018Z,63.4149
2023-05-09T02:55:58.112Z,63.4087
2023-05-09T02:56:59.213Z,63.3869
2023-05-09T02:58:12.562Z,63.3425
2023-05-09T02:59:02.370Z,63.4237
2023-05-09T03:00:02.489Z,63.3907
2023-05-09T03:01:03.609Z,63.4048
2023-05-09T03:02:04.664Z,63.4869
2023-05-09T03:03:05.877Z,63.4080
2023-05-09T03:04:06.840Z,63.3782
2023-05-09T03:05:07.947Z,63.4004
2023-05-09T03:06:09.022Z,63.4086
2023-05-09T03:07:10.117Z,63.3173
2023-05-09T03:08:11.256Z,63.3722
2023-05-09T03:09:12.383Z,63.2923
2023-05-09T03:10:13.430Z,63.1275
2023-05-09T03:11:14.481Z,63.1978
2023-05-09T03:12:15.598Z,63.2465
2023-05-09T03:13:16.712Z,63.1518
2023-05-09T03:14:17.784Z,63.1261
2023-05-09T03:15:18.874Z,63.0289
2023-05-09T03:16:20.047Z,63.0614
2023-05-09T03:17:21.129Z,63.1348
2023-05-09T03:18:22.157Z,63.1850
2023-05-09T03:19:23.253Z,63.1959
2023-05-09T03:20:24.345Z,63.1363
2023-05-09T03:21:25.425Z,63.0534
2023-05-09T03:22:26.536Z,63.0026
2023-05-09T03:23:27.607Z,63.0245
2023-05-09T03:24:28.802Z,63.0865
2023-05-09T03:25:29.806Z,63.1805
2023-05-09T03:26:30.887Z,63.1902
2023-05-09T03:27:31.986Z,63.1600
2023-05-09T03:28:33.094Z,63.1662
2023-05-09T03:29:34.161Z,63.2613
2023-05-09T03:30:35.270Z,63.3010
2023-05-09T03:31:36.419Z,63.3116
2023-05-09T03:32:37.491Z,63.2665
2023-05-09T03:33:38.565Z,63.3490
2023-05-09T03:34:39.622Z,63.4149
2023-05-09T03:35:40.755Z,63.4307
2023-05-09T03:36:41.806Z,63.4870
2023-05-09T03:37:42.902Z,63.6253
2023-05-09T03:38:44.047Z,63.6909
2023-05-09T03:39:45.180Z,63.6998
2023-05-09T03:40:46.195Z,63.7392
2023-05-09T03:41:47.266Z,63.8193
2023-05-09T03:42:48.398Z,63.7605
2023-05-09T03:43:49.502Z,63.6538
2023-05-09T03:44:50.550Z,63.6933
2023-05-09T03:45:51.643Z,63.7230
2023-05-09T03:46:52.850Z,63.7277
2023-05-09T03:47:53.868Z,63.7372
2023-05-09T03:48:54.968Z,63.7844
2023-05-09T03:49:56.039Z,63.7467
2023-05-09T03:50:57.130Z,63.7207
2023-05-09T03:51:58.210Z,63.6998
2023-05-09T03:52:59.315Z,63.7403
2023-05-09T03:54:00.408Z,63.6870
2023-05-09T03:55:01.595Z,63.7474
2023-05-09T03:56:02.591Z,63.7475
2023-05-09T03:57:03.668Z,63.8002
2023-05-09T03:58:04.783Z,63.8043
2023-05-09T03:59:05.887Z,63.8927
2023-05-09T04:00:06.995Z,63.8013
2023-05-09T04:01:08.060Z,63.7604
2023-05-09T04:02:09.190Z,63.8020
2023-05-09T04:03:10.464Z,63.6971
2023-05-09T04:04:11.411Z,63.6548
2023-05-09T04:05:12.673Z,63.6988
2023-05-09T04:06:13.513Z,63.6119
2023-05-09T04:07:14.614Z,63.5558
2023-05-09T04:08:15.722Z,63.5132
2023-05-09T04:09:16.817Z,63.4611
2023-05-09T04:10:18.015Z,63.4332
2023-05-09T04:11:18.985Z,63.4413
2023-05-09T04:12:20.086Z,63.4454
2023-05-09T04:13:21.242Z,63.5394
2023-05-09T04:14:22.297Z,63.6185
2023-05-09T04:15:23.384Z,63.6747
2023-05-09T04:16:24.501Z,63.6696
2023-05-09T04:17:25.632Z,63.6103
2023-05-09T04:18:26.661Z,63.5730
2023-05-09T04:19:27.793Z,63.5571
2023-05-09T04:20:28.839Z,63.5427
2023-05-09T04:21:29.920Z,63.4916
2023-05-09T04:22:31.048Z,63.5876
2023-05-09T04:23:32.121Z,63.6459
2023-05-09T04:24:33.219Z,63.6512
2023-05-09T04:25:34.402Z,63.7657
2023-05-09T04:26:35.386Z,63.8345
2023-05-09T04:27:36.481Z,63.8952
2023-05-09T04:28:37.568Z,63.9321
2023-05-09T04:29:38.708Z,63.9264
2023-05-09T04:30:39.779Z,64.0307
2023-05-09T04:31:40.909Z,64.0637
2023-05-09T04:32:41.990Z,63.9893
2023-05-09T04:33:43.063Z,63.8975
2023-05-09T04:34:44.169Z,63.8808
2023-05-09T04:35:45.217Z,63.8829
2023-05-09T04:36:46.308Z,63.8482
2023-05-09T04:37:47.411Z,63.8184
2023-05-09T04:38:48.512Z,63.7672
2023-05-09T04:39:49.622Z,63.7847
2023-05-09T04:40:50.781Z,63.8914
2023-05-09T04:41:51.785Z,63.9838
2023-05-09T04:42:52.869Z,64.0759
2023-05-09T04:43:53.957Z,64.1285
2023-05-09T04:44:55.073Z,64.2037
2023-05-09T04:45:56.187Z,64.1811
2023-05-09T04:46:57.239Z,64.2319
2023-05-09T04:47:58.475Z,64.2401
2023-05-09T04:48:59.459Z,64.2351
2023-05-09T04:50:00.537Z,64.2604
2023-05-09T04:51:01.619Z,64.3223
2023-05-09T04:52:02.754Z,64.3366
2023-05-09T04:53:03.808Z,64.3151
2023-05-09T04:54:04.911Z,64.3236
2023-05-09T04:55:06.010Z,64.3954
2023-05-09T04:56:07.197Z,64.3225
2023-05-09T04:57:17.455Z,64.4946
2023-05-09T04:58:10.267Z,64.5353
2023-05-09T04:59:10.400Z,64.5926
2023-05-09T05:00:11.516Z,64.6177
2023-05-09T05:01:12.617Z,64.6446
2023-05-09T05:02:13.667Z,64.6484
2023-05-09T05:03:14.750Z,64.5986
2023-05-09T05:04:15.895Z,64.5609
2023-05-09T05:05:17.109Z,64.5249
2023-05-09T05:06:18.075Z,64.6210
2023-05-09T05:07:19.141Z,64.7025
2023-05-09T05:08:20.262Z,64.7019
2023-05-09T05:09:21.345Z,64.7130
2023-05-09T05:10:22.471Z,64.7738
2023-05-09T05:11:23.611Z,64.8680
2023-05-09T05:12:24.624Z,64.8122
2023-05-09T05:13:25.814Z,64.6652
2023-05-09T05:14:26.813Z,64.7194
2023-05-09T05:15:27.917Z,64.7391
2023-05-09T05:16:29.092Z,64.6920
2023-05-09T05:17:30.116Z,64.7966
2023-05-09T05:18:31.188Z,64.8188
2023-05-09T05:19:32.298Z,64.8185
2023-05-09T05:20:33.423Z,64.9190
2023-05-09T05:21:34.473Z,65.0205
2023-05-09T05:22:35.587Z,64.9327
2023-05-09T05:23:36.667Z,65.0321
2023-05-09T05:24:37.786Z,64.9209
2023-05-09T05:25:38.883Z,64.8918
2023-05-09T05:26:40.052Z,64.8694
2023-05-09T05:27:41.105Z,65.0178
2023-05-09T05:28:42.149Z,65.2419
2023-05-09T05:29:43.256Z,65.2050
2023-05-09T05:30:44.363Z,65.1352
2023-05-09T05:31:45.443Z,65.1658
2023-05-09T05:32:46.547Z,65.1002
2023-05-09T05:33:47.621Z,65.0945
2023-05-09T05:34:48.729Z,65.2153
2023-05-09T05:35:49.829Z,65.2002
2023-05-09T05:36:50.899Z,65.1332
2023-05-09T05:37:52.001Z,65.0583
2023-05-09T05:38:53.107Z,65.1023
2023-05-09T05:39:54.213Z,65.0784
2023-05-09T05:40:55.322Z,65.2988
2023-05-09T05:41:56.496Z,65.3666
2023-05-09T05:42:57.503Z,65.3661
2023-05-09T05:43:58.583Z,65.3070
2023-05-09T05:44:59.685Z,65.2122
2023-05-09T05:46:00.838Z,65.2969
2023-05-09T05:47:01.864Z,65.3799
2023-05-09T05:48:03.032Z,65.4580
2023-05-09T05:49:04.068Z,65.5066
2023-05-09T05:50:05.161Z,65.3866
2023-05-09T05:51:06.261Z,65.4116
2023-05-09T05:52:07.356Z,65.3851
2023-05-09T05:53:08.446Z,65.3634
2023-05-09T05:54:09.542Z,65.4529
2023-05-09T05:55:10.652Z,65.7359
2023-05-09T05:56:11.784Z,65.6808
2023-05-09T05:57:12.864Z,65.6917
2023-05-09T05:58:13.958Z,65.6587
2023-05-09T05:59:15.026Z,65.5951
2023-05-09T06:00:16.117Z,65.5253
2023-05-09T06:01:17.223Z,65.5976
2023-05-09T06:02:18.436Z,65.5416
2023-05-09T06:03:19.499Z,65.5680
2023-05-09T06:04:20.614Z,65.5589
2023-05-09T06:05:21.602Z,65.4880
2023-05-09T06:06:22.708Z,65.4580
2023-05-09T06:07:23.790Z,65.5842
2023-05-09T06:08:24.895Z,65.7129
2023-05-09T06:09:25.992Z,65.7037
2023-05-09T06:10:27.099Z,65.6384
2023-05-09T06:11:28.208Z,65.5949
2023-05-09T06:12:29.378Z,65.6778
2023-05-09T06:13:30.402Z,65.6443
2023-05-09T06:14:31.478Z,65.5489
2023-05-09T06:15:32.560Z,65.5570
2023-05-09T06:16:33.677Z,65.7170
2023-05-09T06:17:34.785Z,65.7346
2023-05-09T06:18:35.861Z,65.7120
2023-05-09T06:19:36.953Z,65.8278
2023-05-09T06:20:38.048Z,65.8704
2023-05-09T06:21:39.149Z,65.7367
2023-05-09T06:22:40.234Z,65.8076
2023-05-09T06:23:57.000Z,65.7620
2023-05-09T06:24:43.488Z,65.8297
2023-05-09T06:25:43.613Z,65.9328
2023-05-09T06:26:44.666Z,65.9702
2023-05-09T06:27:45.849Z,65.8480
2023-05-09T06:28:46.871Z,65.7222
2023-05-09T06:29:47.976Z,65.6880
2023-05-09T06:30:49.065Z,65.7915
2023-05-09T06:31:50.191Z,65.9044
2023-05-09T06:32:51.284Z,65.9795
2023-05-09T06:33:52.373Z,66.0467
2023-05-09T06:34:53.456Z,65.8674
2023-05-09T06:35:54.532Z,65.7833
2023-05-09T06:36:55.633Z,65.9381
2023-05-09T06:37:56.737Z,65.9257
2023-05-09T06:38:57.821Z,65.8446
2023-05-09T06:39:58.920Z,65.7868
2023-05-09T06:41:00.011Z,65.6501
2023-05-09T06:42:01.146Z,65.5952
2023-05-09T06:43:02.300Z,65.6534
2023-05-09T06:44:03.300Z,65.5481
2023-05-09T06:45:04.425Z,65.4787
2023-05-09T06:46:05.537Z,65.6219
2023-05-09T06:47:06.593Z,65.6045
2023-05-09T06:48:07.787Z,65.5195
2023-05-09T06:49:08.775Z,65.6761
2023-05-09T06:50:09.883Z,65.6587
2023-05-09T06:51:10.988Z,65.5127
2023-05-09T06:52:12.073Z,65.5093
2023-05-09T06:53:13.158Z,65.4505
2023-05-09T06:54:14.257Z,65.3698
2023-05-09T06:55:15.591Z,65.3755
2023-05-09T06:56:18.322Z,65.3734
2023-05-09T06:57:17.541Z,65.3856
2023-05-09T06:58:18.718Z,65.4316
2023-05-09T06:59:19.712Z,65.3966
2023-05-09T07:00:20.826Z,65.3814
2023-05-09T07:01:21.979Z,65.4087
2023-05-09T07:02:23.039Z,65.4442
2023-05-09T07:03:24.091Z,65.5476
2023-05-09T07:04:25.189Z,65.4602
2023-05-09T07:05:26.353Z,65.5749
2023-05-09T07:06:27.369Z,65.5677
2023-05-09T07:07:28.500Z,65.4039
2023-05-09T07:08:29.564Z,65.3661
2023-05-09T07:09:30.667Z,65.2727
2023-05-09T07:10:31.730Z,65.2261
2023-05-09T07:11:32.820Z,65.2437
2023-05-09T07:12:33.946Z,65.2343
2023-05-09T07:13:35.114Z,65.2282
2023-05-09T07:14:36.129Z,65.1108
2023-05-09T07:15:42.266Z,65.0545
2023-05-09T07:16:39.357Z,65.0255
2023-05-09T07:17:39.505Z,65.0773
2023-05-09T07:18:40.509Z,64.9311
2023-05-09T07:19:41.583Z,64.7362
2023-05-09T07:20:42.685Z,64.7314
2023-05-09T07:21:43.795Z,64.6598
2023-05-09T07:22:44.891Z,64.4673
2023-05-09T07:23:46.060Z,64.3253
2023-05-09T07:24:47.076Z,64.1823
2023-05-09T07:25:48.169Z,64.1334
2023-05-09T07:26:49.258Z,64.1757
2023-05-09T07:27:50.388Z,64.2388
2023-05-09T07:28:51.533Z,64.0049
2023-05-09T07:29:52.541Z,64.1044
2023-05-09T07:30:53.655Z,64.0195
2023-05-09T07:31:54.788Z,63.9554
2023-05-09T07:32:55.885Z,63.8821
2023-05-09T07:33:56.925Z,63.8402
2023-05-09T07:34:58.035Z,63.8531
2023-05-09T07:35:59.162Z,64.0565
2023-05-09T07:37:00.218Z,64.0159
2023-05-09T07:38:01.337Z,63.8726
2023-05-09T07:39:02.394Z,63.7224
2023-05-09T07:40:03.500Z,63.6890
2023-05-09T07:41:04.611Z,63.5319
2023-05-09T07:42:05.701Z,63.4794
2023-05-09T07:43:06.790Z,63.5593
2023-05-09T07:44:08.023Z,63.4941
2023-05-09T07:45:08.980Z,63.4227
2023-05-09T07:46:10.125Z,63.2893
2023-05-09T07:47:11.160Z,63.3069
2023-05-09T07:48:12.334Z,63.2494
2023-05-09T07:49:13.358Z,63.0140
2023-05-09T07:50:14.448Z,62.8733
2023-05-09T07:51:15.547Z,62.7713
2023-05-09T07:52:16.618Z,62.7349
2023-05-09T07:53:17.791Z,62.5703
2023-05-09T07:54:18.828Z,62.4306
2023-05-09T07:55:19.917Z,62.4156
2023-05-09T07:56:21.014Z,62.3211
2023-05-09T07:57:22.143Z,62.3285
2023-05-09T07:58:23.196Z,62.3342
2023-05-09T07:59:24.367Z,62.4142
2023-05-09T08:00:25.459Z,62.5133
2023-05-09T08:01:26.485Z,62.3724
2023-05-09T08:02:27.625Z,62.2644
2023-05-09T08:03:28.721Z,62.2094
2023-05-09T08:04:29.793Z,62.1168
2023-05-09T08:05:30.877Z,62.0989
2023-05-09T08:06:31.947Z,62.0759
2023-05-09T08:07:33.055Z,62.0668
2023-05-09T08:08:34.175Z,62.1338
2023-05-09T08:09:35.240Z,62.1133
2023-05-09T08:10:36.367Z,62.1282
2023-05-09T08:11:37.433Z,62.1698
2023-05-09T08:12:38.564Z,62.2191
2023-05-09T08:13:39.620Z,62.2014
2023-05-09T08:14:40.810Z,62.1748
2023-05-09T08:15:41.867Z,62.0096
2023-05-09T08:16:42.907Z,61.9363
2023-05-09T08:17:44.060Z,61.9927
2023-05-09T08:18:45.118Z,62.0192
2023-05-09T08:19:46.188Z,61.9332
2023-05-09T08:20:47.283Z,61.9189
2023-05-09T08:21:48.377Z,62.0320
2023-05-09T08:22:49.486Z,62.0201
2023-05-09T08:23:50.568Z,62.0629
2023-05-09T08:24:51.643Z,62.1539
2023-05-09T08:25:52.748Z,62.1743
2023-05-09T08:26:53.849Z,62.0908
2023-05-09T08:27:54.942Z,62.1687
2023-05-09T08:28:56.063Z,62.3570
2023-05-09T08:29:57.223Z,62.4553
2023-05-09T08:30:58.271Z,62.2843
2023-05-09T08:31:59.405Z,62.2428
2023-05-09T08:33:00.445Z,62.3302
2023-05-09T08:34:01.531Z,62.4466
2023-05-09T08:35:02.626Z,62.3715
2023-05-09T08:36:03.711Z,62.3207
2023-05-09T08:37:04.795Z,62.2119
2023-05-09T08:38:05.891Z,62.1842
2023-05-09T08:39:06.984Z,62.2190
2023-05-09T08:40:08.086Z,62.2867
2023-05-09T08:41:09.201Z,62.2978
2023-05-09T08:42:10.287Z,62.2534
2023-05-09T08:43:11.386Z,62.2057
2023-05-09T08:44:12.483Z,62.3173
2023-05-09T08:45:13.558Z,62.3214
2023-05-09T08:46:14.680Z,62.3163
2023-05-09T08:47:15.767Z,62.2784
2023-05-09T08:48:16.865Z,62.2304
2023-05-09T08:49:17.946Z,62.2749
2023-05-09T08:50:19.164Z,62.3972
2023-05-09T08:51:20.149Z,62.4930
2023-05-09T08:52:21.244Z,62.5106
2023-05-09T08:53:22.314Z,62.4463
2023-05-09T08:54:23.447Z,62.5000
2023-05-09T08:55:24.519Z,62.5544
2023-05-09T08:56:25.614Z,62.5228
2023-05-09T08:57:26.693Z,62.5497
2023-05-09T08:58:27.797Z,62.5199
2023-05-09T08:59:28.902Z,62.5424
2023-05-09T09:00:30.080Z,62.6061
2023-05-09T09:01:31.105Z,62.6843
2023-05-09T09:02:32.204Z,62.5905
2023-05-09T09:03:33.280Z,62.5917
2023-05-09T09:04:34.428Z,62.8075
2023-05-09T09:06:36.567Z,62.5407
2023-05-09T09:07:37.662Z,62.4437
2023-05-09T09:08:38.761Z,62.4098
2023-05-09T09:09:39.856Z,62.3747
2023-05-09T09:10:40.925Z,62.3497
2023-05-09T09:11:42.039Z,62.3561
2023-05-09T09:12:43.145Z,62.4475
2023-05-09T09:13:44.202Z,62.4152
2023-05-09T09:14:45.324Z,62.4999
2023-05-09T09:15:46.509Z,62.4621
2023-05-09T09:16:47.530Z,62.4652
2023-05-09T09:17:48.624Z,62.6308
2023-05-09T09:18:49.691Z,62.8649
2023-05-09T09:19:50.838Z,62.9255
2023-05-09T09:20:51.866Z,62.8363
2023-05-09T09:21:52.973Z,62.7456
2023-05-09T09:22:54.095Z,62.6419
2023-05-09T09:23:55.174Z,62.6557
2023-05-09T09:24:56.259Z,62.6666
2023-05-09T09:25:59.539Z,62.6058
2023-05-09T09:26:58.449Z,62.5734
2023-05-09T09:27:59.579Z,62.6613
2023-05-09T09:29:00.640Z,62.6221
2023-05-09T09:30:01.770Z,62.4889
2023-05-09T09:31:02.915Z,62.4525
2023-05-09T09:32:03.949Z,62.4106
2023-05-09T09:33:05.117Z,62.4042
2023-05-09T09:34:06.936Z,62.4783
2023-05-09T09:35:07.238Z,62.5587
2023-05-09T09:36:08.295Z,62.5025
2023-05-09T09:37:09.395Z,62.3946
2023-05-09T09:38:10.497Z,62.3623
2023-05-09T09:39:11.590Z,62.4494
2023-05-09T09:40:12.913Z,62.5503
2023-05-09T09:41:13.782Z,62.6074
2023-05-09T09:42:14.894Z,62.6383
2023-05-09T09:43:15.969Z,62.5200
2023-05-09T09:44:17.081Z,62.4803
2023-05-09T09:45:18.186Z,62.4669
2023-05-09T09:46:19.361Z,62.4456
2023-05-09T09:47:20.352Z,62.4141
2023-05-09T09:48:21.445Z,62.3593
2023-05-09T09:49:22.523Z,62.3413
2023-05-09T09:50:23.648Z,62.3656
2023-05-09T09:51:24.712Z,62.4243
2023-05-09T09:52:25.835Z,62.3913
2023-05-09T09:53:26.919Z,62.3607
2023-05-09T09:54:28.037Z,62.3259
2023-05-09T09:55:29.107Z,62.2823
2023-05-09T09:56:30.190Z,62.1339
2023-05-09T09:57:31.348Z,62.0500
2023-05-09T09:58:32.399Z,62.0590
2023-05-09T09:59:33.495Z,61.9726
2023-05-09T10:00:34.566Z,61.8409
2023-05-09T10:01:35.805Z,61.8506
2023-05-09T10:02:36.789Z,61.8935
2023-05-09T10:03:37.889Z,61.8774
2023-05-09T10:04:39.053Z,61.9544
2023-05-09T10:05:40.039Z,61.9084
2023-05-09T10:06:41.121Z,61.7857
2023-05-09T10:07:42.214Z,61.8226
2023-05-09T10:08:43.293Z,61.8655
2023-05-09T10:09:44.380Z,61.8770
2023-05-09T10:10:45.515Z,61.7962
2023-05-09T10:11:46.568Z,61.6921
2023-05-09T10:12:47.719Z,61.6311
2023-05-09T10:13:48.763Z,61.7082
2023-05-09T10:14:49.856Z,61.8737
2023-05-09T10:15:53.879Z,61.8247
2023-05-09T10:16:52.204Z,61.7581
2023-05-09T10:17:53.271Z,61.7095
2023-05-09T10:18:54.308Z,61.5922
2023-05-09T10:19:55.318Z,61.8439
2023-05-09T10:20:56.482Z,62.0474
2023-05-09T10:21:57.498Z,61.9313
2023-05-09T10:22:58.581Z,61.7176
2023-05-09T10:23:59.684Z,61.6163
2023-05-09T10:25:00.836Z,61.5788
2023-05-09T10:26:01.957Z,61.5171
2023-05-09T10:27:03.035Z,61.5017
2023-05-09T10:28:04.139Z,61.5680
2023-05-09T10:29:05.208Z,61.5272
2023-05-09T10:30:06.322Z,61.2553
2023-05-09T10:31:08.872Z,61.0630
2023-05-09T10:32:08.589Z,60.9174
2023-05-09T10:33:09.639Z,60.8911
2023-05-09T10:34:10.696Z,61.0110
2023-05-09T10:35:11.825Z,60.9295
2023-05-09T10:36:12.920Z,60.8922
2023-05-09T10:37:13.976Z,60.8962
2023-05-09T10:38:15.072Z,60.8668
2023-05-09T10:39:16.168Z,60.8878
2023-05-09T10:40:17.274Z,60.8493
2023-05-09T10:41:18.356Z,60.8968
2023-05-09T10:42:19.467Z,60.9684
2023-05-09T10:43:20.538Z,60.9964
2023-05-09T10:44:21.624Z,60.9449
2023-05-09T10:45:22.765Z,61.0109
2023-05-09T10:46:23.905Z,61.3039
2023-05-09T10:47:25.035Z,61.1639
2023-05-09T10:48:26.001Z,61.0157
2023-05-09T10:49:27.096Z,60.8672
2023-05-09T10:50:28.198Z,60.7355
2023-05-09T10:51:29.310Z,60.6389
2023-05-09T10:52:30.395Z,60.7342
2023-05-09T10:53:31.479Z,60.8478
2023-05-09T10:54:32.562Z,60.9837
2023-05-09T10:55:33.655Z,61.0101
2023-05-09T10:56:34.772Z,60.9884
2023-05-09T10:57:35.858Z,60.8756
2023-05-09T10:58:36.932Z,60.8849
2023-05-09T10:59:38.036Z,60.8605
2023-05-09T11:00:39.141Z,60.8549
2023-05-09T11:01:40.301Z,60.9321
2023-05-09T11:02:41.463Z,60.9529
2023-05-09T11:03:42.500Z,60.9982
2023-05-09T11:04:43.516Z,60.9989
2023-05-09T11:05:44.583Z,61.0780
2023-05-09T11:06:45.706Z,61.0238
2023-05-09T11:07:46.786Z,60.9749
2023-05-09T11:08:47.878Z,60.8868
2023-05-09T11:09:48.968Z,60.8165
2023-05-09T11:10:50.055Z,60.8362
2023-05-09T11:11:51.168Z,60.7612
2023-05-09T11:12:52.248Z,60.7487
2023-05-09T11:13:53.340Z,60.7322
2023-05-09T11:14:54.433Z,60.7274
2023-05-09T11:15:55.578Z,60.6145
2023-05-09T11:16:56.613Z,60.5924
2023-05-09T11:17:57.840Z,60.5071
2023-05-09T11:18:58.813Z,60.4047
2023-05-09T11:19:59.892Z,60.2923
2023-05-09T11:21:01.007Z,60.3045
2023-05-09T11:22:02.127Z,60.2737
2023-05-09T11:23:03.182Z,60.2762
2023-05-09T11:24:04.300Z,60.2654
2023-05-09T11:25:05.370Z,60.2331
2023-05-09T11:26:06.523Z,60.3615
2023-05-09T11:27:07.594Z,60.5135
2023-05-09T11:28:08.672Z,60.5302
2023-05-09T11:29:09.781Z,60.4382
2023-05-09T11:30:10.876Z,60.4796
2023-05-09T11:31:11.955Z,60.4619
2023-05-09T11:32:13.180Z,60.3083
2023-05-09T11:33:14.228Z,60.2093
2023-05-09T11:34:15.221Z,60.1428
2023-05-09T11:35:16.664Z,60.0735
2023-05-09T11:36:17.440Z,60.1349
2023-05-09T11:37:18.515Z,60.4565
2023-05-09T11:38:19.604Z,60.4994
2023-05-09T11:39:20.704Z,60.4244
2023-05-09T11:40:21.813Z,60.4417
2023-05-09T11:41:22.894Z,60.3404
2023-05-09T11:42:23.977Z,60.2695
2023-05-09T11:43:25.076Z,60.2983
2023-05-09T11:44:26.178Z,60.3990
2023-05-09T11:45:27.271Z,60.3626
2023-05-09T11:46:28.373Z,60.2479
2023-05-09T11:47:29.484Z,60.2058
2023-05-09T11:48:30.618Z,60.1644
2023-05-09T11:49:31.619Z,60.1108
2023-05-09T11:50:32.730Z,60.3015
2023-05-09T11:51:33.819Z,60.4024
2023-05-09T11:52:34.906Z,60.3093
2023-05-09T11:53:35.991Z,60.3147
2023-05-09T11:54:37.085Z,60.2871
2023-05-09T11:55:38.217Z,60.1779
2023-05-09T11:56:39.288Z,59.9691
2023-05-09T11:57:40.379Z,59.8222
2023-05-09T11:58:41.457Z,59.9415
2023-05-09T11:59:42.542Z,59.9600
2023-05-09T12:00:43.650Z,60.1499
2023-05-09T12:01:44.731Z,60.2598
2023-05-09T12:02:46.035Z,60.2551
2023-05-09T12:03:47.068Z,60.3137
2023-05-09T12:04:48.028Z,60.3187
2023-05-09T12:05:49.170Z,60.2878
2023-05-09T12:06:50.200Z,60.3404
2023-05-09T12:07:51.346Z,60.3039
2023-05-09T12:08:52.402Z,60.0779
2023-05-09T12:09:53.511Z,60.0545
2023-05-09T12:10:54.602Z,60.1269
2023-05-09T12:11:55.684Z,60.2051
2023-05-09T12:12:56.797Z,60.2742
2023-05-09T12:13:57.908Z,60.3398
2023-05-09T12:14:59.006Z,60.1616
2023-05-09T12:16:00.163Z,60.1142
2023-05-09T12:17:01.168Z,60.0717
2023-05-09T12:18:02.303Z,59.8907
2023-05-09T12:19:03.418Z,59.7392
2023-05-09T12:20:04.472Z,59.6621